createdAt,value
2019-01-20T00:00:02.543Z,1016.1
2019-01-20T00:01:03.123Z,1016
2019-01-20T00:02:03.399Z,1016.1
2019-01-20T00:03:03.746Z,1016.1
2019-01-20T00:04:03.943Z,1016.1
2019-01-20T00:05:03.894Z,1016.2
2019-01-20T00:06:03.349Z,1016.2
2019-01-20T00:07:03.218Z,1016.2
2019-01-20T00:08:03.814Z,1016.2
2019-01-20T00:09:03.312Z,1016
2019-01-20T00:10:03.991Z,1016
2019-01-20T00:11:03.368Z,1016.1
2019-01-20T00:12:03.265Z,1016.1
2019-01-20T00:13:03.807Z,1016.1
2019-01-20T00:14:03.744Z,1016.1
2019-01-20T00:15:03.882Z,1016.2
2019-01-20T00:16:03.769Z,1016.1
2019-01-20T00:17:03.540Z,1016.2
2019-01-20T00:18:03.022Z,1016.2
2019-01-20T00:19:03.579Z,1016.1
2019-01-20T00:20:03.210Z,1016.1
2019-01-20T00:21:03.892Z,1016.2
2019-01-20T00:22:02.446Z,1016
2019-01-20T00:23:03.800Z,1016.1
2019-01-20T00:24:03.958Z,1016.1
2019-01-20T00:25:04.134Z,1016.1
2019-01-20T00:26:03.645Z,1016.1
2019-01-20T00:27:03.893Z,1016.2
2019-01-20T00:28:03.103Z,1016.1
2019-01-20T00:29:03.822Z,1016.1
2019-01-20T00:30:03.865Z,1016.1
2019-01-20T00:31:03.426Z,1016.2
2019-01-20T00:32:03.230Z,1016.2
2019-01-20T00:33:03.139Z,1016.2
2019-01-20T00:34:03.599Z,1016.2
2019-01-20T00:35:03.455Z,1016.1
2019-01-20T00:36:03.463Z,1016.1
2019-01-20T00:37:03.330Z,1016.1
2019-01-20T00:38:03.868Z,1016.1
2019-01-20T00:39:03.159Z,1016.1
2019-01-20T00:40:03.634Z,1016.1
2019-01-20T00:41:03.641Z,1016.1
2019-01-20T00:42:03.613Z,1016.1
2019-01-20T00:43:03.346Z,1016.1
2019-01-20T00:44:02.333Z,1016.1
2019-01-20T00:45:03.589Z,1016.2
2019-01-20T00:46:03.580Z,1016.1
2019-01-20T00:47:03.373Z,1016.1
2019-01-20T00:48:03.040Z,1016.1
2019-01-20T00:49:03.148Z,1016
2019-01-20T00:50:03.883Z,1016
2019-01-20T00:51:03.405Z,1016
2019-01-20T00:52:03.901Z,1016
2019-01-20T00:53:03.271Z,1016.1
2019-01-20T00:54:03.630Z,1016.3
2019-01-20T00:55:03.120Z,1016.1
2019-01-20T00:56:03.510Z,1016.1
2019-01-20T00:57:03.404Z,1016.1
2019-01-20T00:58:03.387Z,1016.3
2019-01-20T00:59:03.244Z,1016.1
2019-01-20T01:00:03.453Z,1016.1
2019-01-20T01:01:03.667Z,1016.1
2019-01-20T01:02:03.659Z,1016.1
2019-01-20T01:03:03.695Z,1016.1
2019-01-20T01:04:03.359Z,1016.3
2019-01-20T01:05:03.392Z,1016.1
2019-01-20T01:06:03.786Z,1016.1
2019-01-20T01:07:03.101Z,1016.1
2019-01-20T01:08:02.631Z,1016.2
2019-01-20T01:09:02.391Z,1016.3
2019-01-20T01:10:03.505Z,1016.3
2019-01-20T01:11:03.657Z,1016.3
2019-01-20T01:12:02.997Z,1016.3
2019-01-20T01:13:03.478Z,1016.3
2019-01-20T01:14:03.431Z,1016.2
2019-01-20T01:15:03.694Z,1016.3
2019-01-20T01:16:03.587Z,1016.3
2019-01-20T01:17:03.813Z,1016.2
2019-01-20T01:18:03.939Z,1016.3
2019-01-20T01:19:03.072Z,1016.2
2019-01-20T01:20:03.854Z,1016.3
2019-01-20T01:21:03.187Z,1016.3
2019-01-20T01:22:03.528Z,1016.2
2019-01-20T01:23:03.165Z,1016.2
2019-01-20T01:24:03.428Z,1016.2
2019-01-20T01:25:03.545Z,1016.2
2019-01-20T01:26:03.685Z,1016.2
2019-01-20T01:27:03.295Z,1016.2
2019-01-20T01:28:03.792Z,1016.2
2019-01-20T01:29:03.609Z,1016.3
2019-01-20T01:30:02.271Z,1016.2
2019-01-20T01:31:01.911Z,1016.2
2019-01-20T01:32:02.205Z,1016.2
2019-01-20T01:33:03.849Z,1016.2
2019-01-20T01:34:02.246Z,1016.2
2019-01-20T01:35:03.615Z,1016.2
2019-01-20T01:36:03.138Z,1016.2
2019-01-20T01:37:03.415Z,1016.1
2019-01-20T01:38:03.250Z,1016.1
2019-01-20T01:39:03.465Z,1016.1
2019-01-20T01:40:03.643Z,1016.2
2019-01-20T01:41:03.819Z,1016.2
2019-01-20T01:42:03.805Z,1016.2
2019-01-20T01:43:03.008Z,1016.2
2019-01-20T01:44:03.372Z,1016.2
2019-01-20T01:45:03.565Z,1016.2
2019-01-20T01:46:03.246Z,1016.2
2019-01-20T01:47:03.425Z,1016.2
2019-01-20T01:48:03.666Z,1016.3
2019-01-20T01:49:03.699Z,1016.2
2019-01-20T01:50:04.392Z,1016.2
2019-01-20T01:51:03.391Z,1016.2
2019-01-20T01:52:03.484Z,1016.3
2019-01-20T01:53:03.268Z,1016.3
2019-01-20T01:54:02.166Z,1016.2
2019-01-20T01:55:02.360Z,1016.2
2019-01-20T01:56:03.387Z,1016.2
2019-01-20T01:57:03.447Z,1016.2
2019-01-20T01:58:03.372Z,1016.1
2019-01-20T01:59:03.456Z,1016.2
2019-01-20T02:00:03.290Z,1016.1
2019-01-20T02:01:03.034Z,1016.1
2019-01-20T02:02:03.098Z,1016.2
2019-01-20T02:03:03.498Z,1016.2
2019-01-20T02:04:03.161Z,1016.1
2019-01-20T02:05:03.530Z,1016.2
2019-01-20T02:06:02.909Z,1016.2
2019-01-20T02:07:03.441Z,1016.2
2019-01-20T02:08:03.415Z,1016
2019-01-20T02:09:03.580Z,1016
2019-01-20T02:10:03.790Z,1016.1
2019-01-20T02:11:03.340Z,1016.1
2019-01-20T02:12:03.429Z,1016.2
2019-01-20T02:13:03.535Z,1016.2
2019-01-20T02:14:03.606Z,1016.2
2019-01-20T02:15:02.889Z,1016.1
2019-01-20T02:16:03.515Z,1016.1
2019-01-20T02:17:03.725Z,1016.1
2019-01-20T02:18:03.645Z,1016.1
2019-01-20T02:19:03.125Z,1016
2019-01-20T02:20:03.621Z,1016
2019-01-20T02:21:03.128Z,1016.1
2019-01-20T02:22:03.635Z,1016.2
2019-01-20T02:23:03.053Z,1016
2019-01-20T02:24:03.481Z,1016.1
2019-01-20T02:25:03.293Z,1016.1
2019-01-20T02:26:03.548Z,1016
2019-01-20T02:27:03.587Z,1016.1
2019-01-20T02:28:03.259Z,1016.2
2019-01-20T02:29:03.787Z,1016.2
2019-01-20T02:30:03.448Z,1016.2
2019-01-20T02:31:03.181Z,1016.2
2019-01-20T02:32:03.067Z,1016.2
2019-01-20T02:33:03.957Z,1016.2
2019-01-20T02:34:03.278Z,1016.3
2019-01-20T02:35:03.315Z,1016.3
2019-01-20T02:36:03.296Z,1016.2
2019-01-20T02:37:03.084Z,1016.2
2019-01-20T02:38:03.786Z,1016.2
2019-01-20T02:39:03.006Z,1016.2
2019-01-20T02:40:02.711Z,1016.2
2019-01-20T02:41:02.342Z,1016.3
2019-01-20T02:42:03.006Z,1016.2
2019-01-20T02:43:03.338Z,1016.2
2019-01-20T02:44:03.505Z,1016.2
2019-01-20T02:45:03.479Z,1016.2
2019-01-20T02:46:03.796Z,1016.2
2019-01-20T02:47:03.867Z,1016.3
2019-01-20T02:48:03.939Z,1016.3
2019-01-20T02:49:04.033Z,1016.3
2019-01-20T02:50:03.832Z,1016.2
2019-01-20T02:51:03.841Z,1016.2
2019-01-20T02:52:03.899Z,1016.3
2019-01-20T02:53:03.486Z,1016.3
2019-01-20T02:54:03.428Z,1016.2
2019-01-20T02:55:03.262Z,1016.2
2019-01-20T02:56:02.970Z,1016.2
2019-01-20T02:57:03.391Z,1016.2
2019-01-20T02:58:03.854Z,1016.2
2019-01-20T02:59:04.130Z,1016.2
2019-01-20T03:00:03.228Z,1016.2
2019-01-20T03:01:02.998Z,1016.2
2019-01-20T03:02:03.272Z,1016.1
2019-01-20T03:03:03.297Z,1016.2
2019-01-20T03:04:03.932Z,1016.1
2019-01-20T03:05:02.578Z,1016.1
2019-01-20T03:06:03.979Z,1016.2
2019-01-20T03:07:03.910Z,1016.1
2019-01-20T03:08:03.459Z,1016.1
2019-01-20T03:09:03.481Z,1016.1
2019-01-20T03:10:03.454Z,1016.1
2019-01-20T03:11:03.699Z,1016.2
2019-01-20T03:12:04.214Z,1016.1
2019-01-20T03:13:03.193Z,1016.1
2019-01-20T03:14:03.004Z,1016.1
2019-01-20T03:15:03.874Z,1016.1
2019-01-20T03:16:03.092Z,1016.1
2019-01-20T03:17:03.038Z,1016
2019-01-20T03:18:03.109Z,1016
2019-01-20T03:19:03.838Z,1016.1
2019-01-20T03:20:03.962Z,1016.1
2019-01-20T03:21:03.558Z,1016.1
2019-01-20T03:22:03.289Z,1016.1
2019-01-20T03:23:03.205Z,1016
2019-01-20T03:24:03.847Z,1016.1
2019-01-20T03:25:03.064Z,1016
2019-01-20T03:26:03.559Z,1016.1
2019-01-20T03:27:03.575Z,1016
2019-01-20T03:28:02.167Z,1016
2019-01-20T03:29:02.444Z,1016
2019-01-20T03:30:03.365Z,1016
2019-01-20T03:31:03.814Z,1016.1
2019-01-20T03:32:03.664Z,1016.1
2019-01-20T03:33:04.023Z,1016.1
2019-01-20T03:34:03.654Z,1016.1
2019-01-20T03:35:04.007Z,1016
2019-01-20T03:36:04.057Z,1016
2019-01-20T03:37:03.350Z,1016
2019-01-20T03:38:03.327Z,1016.2
2019-01-20T03:39:03.796Z,1016.1
2019-01-20T03:40:03.130Z,1016.1
2019-01-20T03:41:03.537Z,1016.1
2019-01-20T03:42:11.396Z,1016.1
2019-01-20T03:43:03.553Z,1016.1
2019-01-20T03:44:03.184Z,1016.1
2019-01-20T03:45:03.563Z,1016.1
2019-01-20T03:46:04.111Z,1016.1
2019-01-20T03:47:03.741Z,1016.2
2019-01-20T03:48:03.314Z,1016.2
2019-01-20T03:49:02.987Z,1016.2
2019-01-20T03:50:03.392Z,1016.2
2019-01-20T03:51:04.086Z,1016.2
2019-01-20T03:52:03.724Z,1016.2
2019-01-20T03:53:02.998Z,1016.1
2019-01-20T03:54:03.364Z,1016.1
2019-01-20T03:55:03.448Z,1016.2
2019-01-20T03:56:03.055Z,1016.1
2019-01-20T03:57:03.937Z,1016.2
2019-01-20T03:58:03.741Z,1016.2
2019-01-20T03:59:03.462Z,1016.2
2019-01-20T04:00:03.276Z,1016.2
2019-01-20T04:01:03.232Z,1016.1
2019-01-20T04:02:03.285Z,1016.1
2019-01-20T04:03:03.452Z,1016
2019-01-20T04:04:03.127Z,1016
2019-01-20T04:05:02.895Z,1016.1
2019-01-20T04:06:03.716Z,1016.1
2019-01-20T04:07:03.581Z,1016.1
2019-01-20T04:08:03.302Z,1016.1
2019-01-20T04:09:03.935Z,1016.1
2019-01-20T04:10:03.392Z,1016.1
2019-01-20T04:11:04.018Z,1016
2019-01-20T04:12:03.619Z,1016
2019-01-20T04:13:03.747Z,1016.1
2019-01-20T04:14:03.535Z,1016.1
2019-01-20T04:15:03.531Z,1016.1
2019-01-20T04:16:02.942Z,1016.2
2019-01-20T04:17:03.589Z,1016.2
2019-01-20T04:18:03.152Z,1016
2019-01-20T04:19:02.711Z,1016
2019-01-20T04:20:03.954Z,1016
2019-01-20T04:21:03.756Z,1016
2019-01-20T04:22:03.499Z,1016.1
2019-01-20T04:23:03.293Z,1016.2
2019-01-20T04:24:03.662Z,1016.1
2019-01-20T04:25:02.294Z,1016.1
2019-01-20T04:26:02.758Z,1016.1
2019-01-20T04:27:03.151Z,1016.2
2019-01-20T04:28:03.424Z,1016.2
2019-01-20T04:29:03.463Z,1016.2
2019-01-20T04:30:03.429Z,1016.2
2019-01-20T04:31:03.853Z,1016
2019-01-20T04:32:03.433Z,1016.1
2019-01-20T04:33:03.343Z,1016
2019-01-20T04:34:03.171Z,1015.9
2019-01-20T04:35:03.716Z,1016.1
2019-01-20T04:36:03.890Z,1016.1
2019-01-20T04:37:03.002Z,1016
2019-01-20T04:38:03.413Z,1016
2019-01-20T04:39:02.911Z,1016.1
2019-01-20T04:40:03.279Z,1016.1
2019-01-20T04:41:03.486Z,1016.1
2019-01-20T04:42:03.967Z,1016.2
2019-01-20T04:43:03.836Z,1016
2019-01-20T04:44:02.961Z,1016.2
2019-01-20T04:45:03.631Z,1016.2
2019-01-20T04:46:03.575Z,1016.2
2019-01-20T04:47:03.564Z,1016.2
2019-01-20T04:48:03.297Z,1016.2
2019-01-20T04:49:03.737Z,1016.2
2019-01-20T04:50:03.214Z,1016.3
2019-01-20T04:51:03.081Z,1016.2
2019-01-20T04:52:03.319Z,1016.2
2019-01-20T04:53:03.765Z,1016.2
2019-01-20T04:54:03.370Z,1016.2
2019-01-20T04:55:02.898Z,1016.2
2019-01-20T04:56:03.673Z,1016.1
2019-01-20T04:57:02.391Z,1016.1
2019-01-20T04:58:03.916Z,1016.1
2019-01-20T04:59:02.133Z,1016
2019-01-20T05:00:03.856Z,1016
2019-01-20T05:01:03.448Z,1016.1
2019-01-20T05:02:03.805Z,1016.1
2019-01-20T05:03:03.985Z,1016.1
2019-01-20T05:04:03.401Z,1016.1
2019-01-20T05:05:03.858Z,1016.1
2019-01-20T05:06:03.307Z,1016.2
2019-01-20T05:07:02.939Z,1016.2
2019-01-20T05:08:03.317Z,1016.3
2019-01-20T05:09:03.327Z,1016.3
2019-01-20T05:10:03.596Z,1016.2
2019-01-20T05:11:03.100Z,1016.2
2019-01-20T05:12:03.124Z,1016.2
2019-01-20T05:13:04.049Z,1016.2
2019-01-20T05:14:03.766Z,1016.2
2019-01-20T05:15:03.556Z,1016.2
2019-01-20T05:16:03.774Z,1016.3
2019-01-20T05:17:03.696Z,1016.3
2019-01-20T05:18:03.506Z,1016.2
2019-01-20T05:19:03.672Z,1016.2
2019-01-20T05:20:03.870Z,1016.2
2019-01-20T05:21:02.859Z,1016.2
2019-01-20T05:22:03.419Z,1016.2
2019-01-20T05:23:03.209Z,1016.2
2019-01-20T05:24:03.360Z,1016.3
2019-01-20T05:25:03.408Z,1016.2
2019-01-20T05:26:03.275Z,1016.2
2019-01-20T05:27:02.915Z,1016.3
2019-01-20T05:28:03.437Z,1016.2
2019-01-20T05:29:03.334Z,1016.2
2019-01-20T05:30:03.301Z,1016.2
2019-01-20T05:31:03.906Z,1016.2
2019-01-20T05:32:03.947Z,1016.2
2019-01-20T05:33:03.119Z,1016.2
2019-01-20T05:34:03.273Z,1016.2
2019-01-20T05:35:03.854Z,1016.2
2019-01-20T05:36:02.870Z,1016.3
2019-01-20T05:37:02.982Z,1016.2
2019-01-20T05:38:04.033Z,1016.2
2019-01-20T05:39:03.391Z,1016.3
2019-01-20T05:40:03.750Z,1016.3
2019-01-20T05:41:03.366Z,1016.3
2019-01-20T05:42:02.974Z,1016.3
2019-01-20T05:43:03.022Z,1016.3
2019-01-20T05:44:02.977Z,1016.3
2019-01-20T05:45:03.577Z,1016.3
2019-01-20T05:46:02.465Z,1016.3
2019-01-20T05:47:03.239Z,1016.3
2019-01-20T05:48:02.065Z,1016.4
2019-01-20T05:49:03.895Z,1016.5
2019-01-20T05:50:03.422Z,1016.4
2019-01-20T05:51:03.867Z,1016.5
2019-01-20T05:52:03.893Z,1016.4
2019-01-20T05:53:02.744Z,1016.4
2019-01-20T05:54:03.641Z,1016.5
2019-01-20T05:55:03.189Z,1016.5
2019-01-20T05:56:03.053Z,1016.4
2019-01-20T05:57:03.027Z,1016.3
2019-01-20T05:58:03.828Z,1016.4
2019-01-20T05:59:03.885Z,1016.4
2019-01-20T06:00:03.670Z,1016.4
2019-01-20T06:01:02.947Z,1016.4
2019-01-20T06:02:03.088Z,1016.5
2019-01-20T06:03:03.891Z,1016.5
2019-01-20T06:04:03.863Z,1016.5
2019-01-20T06:05:02.996Z,1016.5
2019-01-20T06:06:03.366Z,1016.4
2019-01-20T06:07:03.958Z,1016.4
2019-01-20T06:08:03.020Z,1016.4
2019-01-20T06:09:03.659Z,1016.4
2019-01-20T06:10:03.124Z,1016.4
2019-01-20T06:11:03.554Z,1016.4
2019-01-20T06:12:02.967Z,1016.4
2019-01-20T06:13:03.405Z,1016.5
2019-01-20T06:14:02.990Z,1016.4
2019-01-20T06:15:03.085Z,1016.4
2019-01-20T06:16:03.617Z,1016.4
2019-01-20T06:17:03.128Z,1016.5
2019-01-20T06:18:03.207Z,1016.4
2019-01-20T06:19:03.287Z,1016.4
2019-01-20T06:20:03.796Z,1016.4
2019-01-20T06:21:03.475Z,1016.4
2019-01-20T06:22:03.504Z,1016.4
2019-01-20T06:23:03.170Z,1016.4
2019-01-20T06:24:03.496Z,1016.3
2019-01-20T06:25:03.125Z,1016.4
2019-01-20T06:26:02.971Z,1016.5
2019-01-20T06:27:02.889Z,1016.4
2019-01-20T06:28:02.824Z,1016.5
2019-01-20T06:29:03.243Z,1016.5
2019-01-20T06:30:04.226Z,1016.5
2019-01-20T06:31:03.552Z,1016.5
2019-01-20T06:32:03.917Z,1016.5
2019-01-20T06:33:03.351Z,1016.5
2019-01-20T06:34:03.714Z,1016.5
2019-01-20T06:35:03.296Z,1016.6
2019-01-20T06:36:03.613Z,1016.7
2019-01-20T06:37:03.977Z,1016.5
2019-01-20T06:38:03.817Z,1016.6
2019-01-20T06:39:03.837Z,1016.5
2019-01-20T06:40:03.490Z,1016.5
2019-01-20T06:41:03.203Z,1016.5
2019-01-20T06:42:03.335Z,1016.6
2019-01-20T06:43:03.688Z,1016.6
2019-01-20T06:44:03.451Z,1016.6
2019-01-20T06:45:03.017Z,1016.6
2019-01-20T06:46:02.842Z,1016.6
2019-01-20T06:47:03.152Z,1016.7
2019-01-20T06:48:03.877Z,1016.6
2019-01-20T06:49:03.430Z,1016.7
2019-01-20T06:50:03.253Z,1016.7
2019-01-20T06:51:01.850Z,1016.7
2019-01-20T06:52:02.767Z,1016.7
2019-01-20T06:53:03.503Z,1016.6
2019-01-20T06:54:03.708Z,1016.7
2019-01-20T06:55:03.515Z,1016.7
2019-01-20T06:56:03.291Z,1016.7
2019-01-20T06:57:03.532Z,1016.7
2019-01-20T06:58:03.191Z,1016.7
2019-01-20T06:59:03.303Z,1016.6
2019-01-20T07:00:03.907Z,1016.7
2019-01-20T07:01:03.511Z,1016.7
2019-01-20T07:02:03.365Z,1016.7
2019-01-20T07:03:02.859Z,1016.7
2019-01-20T07:04:03.986Z,1016.6
2019-01-20T07:05:03.225Z,1016.7
2019-01-20T07:06:03.878Z,1016.7
2019-01-20T07:07:03.190Z,1016.7
2019-01-20T07:08:03.706Z,1016.7
2019-01-20T07:09:03.629Z,1016.6
2019-01-20T07:10:03.578Z,1016.8
2019-01-20T07:11:03.834Z,1016.8
2019-01-20T07:12:03.263Z,1016.8
2019-01-20T07:13:11.707Z,1016.7
2019-01-20T07:14:03.717Z,1016.7
2019-01-20T07:15:03.140Z,1016.6
2019-01-20T07:16:04.027Z,1016.7
2019-01-20T07:17:03.405Z,1016.7
2019-01-20T07:18:03.262Z,1016.7
2019-01-20T07:19:04.189Z,1016.8
2019-01-20T07:20:02.538Z,1016.7
2019-01-20T07:21:02.968Z,1016.8
2019-01-20T07:22:03.002Z,1016.8
2019-01-20T07:23:03.505Z,1016.8
2019-01-20T07:24:03.148Z,1016.7
2019-01-20T07:25:03.128Z,1016.7
2019-01-20T07:26:02.972Z,1016.7
2019-01-20T07:27:03.657Z,1016.7
2019-01-20T07:28:03.082Z,1016.6
2019-01-20T07:29:03.747Z,1016.6
2019-01-20T07:30:02.866Z,1016.7
2019-01-20T07:31:03.074Z,1016.7
2019-01-20T07:32:03.004Z,1016.8
2019-01-20T07:33:03.647Z,1016.7
2019-01-20T07:34:03.743Z,1016.7
2019-01-20T07:35:03.101Z,1016.7
2019-01-20T07:36:03.076Z,1016.8
2019-01-20T07:37:03.624Z,1016.8
2019-01-20T07:38:03.878Z,1016.7
2019-01-20T07:39:03.342Z,1016.9
2019-01-20T07:40:03.152Z,1016.8
2019-01-20T07:41:03.866Z,1016.9
2019-01-20T07:42:02.432Z,1016.8
2019-01-20T07:43:03.428Z,1016.8
2019-01-20T07:44:03.084Z,1016.8
2019-01-20T07:45:03.236Z,1016.8
2019-01-20T07:46:03.888Z,1016.8
2019-01-20T07:47:03.260Z,1016.8
2019-01-20T07:48:03.732Z,1016.8
2019-01-20T07:49:03.925Z,1016.8
2019-01-20T07:50:03.425Z,1016.8
2019-01-20T07:51:03.658Z,1016.9
2019-01-20T07:52:04.139Z,1016.9
2019-01-20T07:53:02.934Z,1017
2019-01-20T07:54:02.946Z,1017
2019-01-20T07:55:03.918Z,1016.9
2019-01-20T07:56:03.765Z,1017
2019-01-20T07:57:03.329Z,1017
2019-01-20T07:58:03.816Z,1017
2019-01-20T07:59:03.617Z,1016.9
2019-01-20T08:00:03.421Z,1016.9
2019-01-20T08:01:03.535Z,1016.9
2019-01-20T08:02:03.719Z,1016.8
2019-01-20T08:03:03.079Z,1016.9
2019-01-20T08:04:03.400Z,1016.9
2019-01-20T08:05:03.219Z,1016.9
2019-01-20T08:06:03.027Z,1016.8
2019-01-20T08:07:03.101Z,1016.9
2019-01-20T08:08:03.770Z,1016.9
2019-01-20T08:09:02.967Z,1016.9
2019-01-20T08:10:03.579Z,1016.9
2019-01-20T08:11:03.667Z,1016.9
2019-01-20T08:12:03.149Z,1016.9
2019-01-20T08:13:02.875Z,1017
2019-01-20T08:14:02.696Z,1017
2019-01-20T08:15:03.560Z,1017
2019-01-20T08:16:03.533Z,1017
2019-01-20T08:17:03.289Z,1017
2019-01-20T08:18:02.977Z,1017
2019-01-20T08:19:03.081Z,1016.9
2019-01-20T08:20:03.229Z,1016.9
2019-01-20T08:21:03.133Z,1016.9
2019-01-20T08:22:03.343Z,1017
2019-01-20T08:23:03.816Z,1016.9
2019-01-20T08:24:03.467Z,1016.9
2019-01-20T08:25:03.379Z,1016.9
2019-01-20T08:26:03.154Z,1016.9
2019-01-20T08:27:03.604Z,1017.1
2019-01-20T08:28:03.778Z,1017.1
2019-01-20T08:29:03.100Z,1017.2
2019-01-20T08:30:03.588Z,1017.1
2019-01-20T08:31:03.741Z,1017
2019-01-20T08:32:03.730Z,1017
2019-01-20T08:33:03.921Z,1017
2019-01-20T08:34:03.451Z,1017
2019-01-20T08:35:04.051Z,1017.2
2019-01-20T08:36:03.439Z,1017.2
2019-01-20T08:37:04.726Z,1017.1
2019-01-20T08:38:03.786Z,1017.1
2019-01-20T08:39:02.996Z,1017.2
2019-01-20T08:40:03.694Z,1017.2
2019-01-20T08:41:03.174Z,1017.2
2019-01-20T08:42:02.979Z,1017.1
2019-01-20T08:43:03.050Z,1017.3
2019-01-20T08:44:03.780Z,1017.2
2019-01-20T08:45:03.508Z,1017.2
2019-01-20T08:46:03.477Z,1017.2
2019-01-20T08:47:03.243Z,1017.2
2019-01-20T08:48:03.861Z,1017.2
2019-01-20T08:49:03.990Z,1017.3
2019-01-20T08:50:03.527Z,1017.3
2019-01-20T08:51:03.808Z,1017.2
2019-01-20T08:52:03.923Z,1017.2
2019-01-20T08:53:03.844Z,1017.2
2019-01-20T08:54:03.826Z,1017.2
2019-01-20T08:55:03.986Z,1017.2
2019-01-20T08:56:03.760Z,1017.2
2019-01-20T08:57:03.160Z,1017.4
2019-01-20T08:58:03.888Z,1017.3
2019-01-20T08:59:03.284Z,1017.4
2019-01-20T09:00:03.730Z,1017.4
2019-01-20T09:01:03.409Z,1017.3
2019-01-20T09:02:03.116Z,1017.3
2019-01-20T09:03:03.456Z,1017.4
2019-01-20T09:04:03.336Z,1017.3
2019-01-20T09:05:03.046Z,1017.4
2019-01-20T09:06:03.023Z,1017.4
2019-01-20T09:07:02.497Z,1017.3
2019-01-20T09:08:02.165Z,1017.3
2019-01-20T09:09:03.896Z,1017.4
2019-01-20T09:10:03.793Z,1017.2
2019-01-20T09:11:03.974Z,1017.4
2019-01-20T09:12:03.200Z,1017.4
2019-01-20T09:13:03.953Z,1017.4
2019-01-20T09:14:03.381Z,1017.3
2019-01-20T09:15:03.718Z,1017.3
2019-01-20T09:16:03.562Z,1017.5
2019-01-20T09:17:03.207Z,1017.5
2019-01-20T09:18:03.789Z,1017.5
2019-01-20T09:19:03.696Z,1017.5
2019-01-20T09:20:03.858Z,1017.4
2019-01-20T09:21:02.989Z,1017.4
2019-01-20T09:22:03.293Z,1017.4
2019-01-20T09:23:03.389Z,1017.4
2019-01-20T09:24:03.072Z,1017.4
2019-01-20T09:25:04.024Z,1017.4
2019-01-20T09:26:03.662Z,1017.4
2019-01-20T09:27:03.353Z,1017.4
2019-01-20T09:28:03.127Z,1017.4
2019-01-20T09:29:03.430Z,1017.4
2019-01-20T09:30:03.724Z,1017.4
2019-01-20T09:31:03.579Z,1017.3
2019-01-20T09:32:03.020Z,1017.3
2019-01-20T09:33:03.887Z,1017.4
2019-01-20T09:34:03.505Z,1017.4
2019-01-20T09:35:03.099Z,1017.5
2019-01-20T09:36:03.694Z,1017.5
2019-01-20T09:37:03.834Z,1017.5
2019-01-20T09:38:03.009Z,1017.5
2019-01-20T09:39:03.432Z,1017.4
2019-01-20T09:40:03.658Z,1017.5
2019-01-20T09:41:05.549Z,1017.5
2019-01-20T09:42:03.355Z,1017.5
2019-01-20T09:43:05.008Z,1017.5
2019-01-20T09:44:03.734Z,1017.5
2019-01-20T09:45:03.247Z,1017.5
2019-01-20T09:46:03.616Z,1017.4
2019-01-20T09:47:02.372Z,1017.4
2019-01-20T09:48:03.565Z,1017.5
2019-01-20T09:49:02.880Z,1017.5
2019-01-20T09:50:04.032Z,1017.5
2019-01-20T09:51:03.310Z,1017.5
2019-01-20T09:52:03.683Z,1017.5
2019-01-20T09:53:03.127Z,1017.4
2019-01-20T09:54:03.308Z,1017.5
2019-01-20T09:55:03.771Z,1017.5
2019-01-20T09:56:03.615Z,1017.5
2019-01-20T09:57:03.368Z,1017.5
2019-01-20T09:58:03.248Z,1017.6
2019-01-20T09:59:03.625Z,1017.4
2019-01-20T10:00:03.109Z,1017.4
2019-01-20T10:01:03.298Z,1017.5
2019-01-20T10:02:03.242Z,1017.4
2019-01-20T10:03:03.795Z,1017.6
2019-01-20T10:04:03.707Z,1017.6
2019-01-20T10:05:03.151Z,1017.4
2019-01-20T10:06:04.048Z,1017.4
2019-01-20T10:07:03.391Z,1017.4
2019-01-20T10:08:03.016Z,1017.4
2019-01-20T10:09:03.152Z,1017.4
2019-01-20T10:10:02.967Z,1017.4
2019-01-20T10:11:02.141Z,1017.4
2019-01-20T10:12:03.363Z,1017.4
2019-01-20T10:13:03.364Z,1017.5
2019-01-20T10:14:03.866Z,1017.4
2019-01-20T10:15:03.255Z,1017.4
2019-01-20T10:16:02.908Z,1017.4
2019-01-20T10:17:03.149Z,1017.3
2019-01-20T10:18:03.819Z,1017.4
2019-01-20T10:19:03.149Z,1017.3
2019-01-20T10:20:03.932Z,1017.3
2019-01-20T10:21:03.940Z,1017.4
2019-01-20T10:22:03.577Z,1017.4
2019-01-20T10:23:03.618Z,1017.4
2019-01-20T10:24:03.204Z,1017.4
2019-01-20T10:25:03.177Z,1017.4
2019-01-20T10:26:03.947Z,1017.4
2019-01-20T10:27:03.281Z,1017.4
2019-01-20T10:28:03.098Z,1017.4
2019-01-20T10:29:03.710Z,1017.4
2019-01-20T10:30:03.533Z,1017.4
2019-01-20T10:31:03.181Z,1017.4
2019-01-20T10:32:02.430Z,1017.5
2019-01-20T10:33:03.951Z,1017.4
2019-01-20T10:34:02.993Z,1017.4
2019-01-20T10:35:03.774Z,1017.4
2019-01-20T10:36:03.234Z,1017.4
2019-01-20T10:37:03.068Z,1017.3
2019-01-20T10:38:03.497Z,1017.4
2019-01-20T10:39:03.159Z,1017.3
2019-01-20T10:40:03.291Z,1017.3
2019-01-20T10:41:03.842Z,1017.4
2019-01-20T10:42:03.684Z,1017.4
2019-01-20T10:43:03.466Z,1017.3
2019-01-20T10:44:03.306Z,1017.3
2019-01-20T10:45:03.769Z,1017.3
2019-01-20T10:46:03.411Z,1017.5
2019-01-20T10:47:03.005Z,1017.4
2019-01-20T10:48:03.130Z,1017.4
2019-01-20T10:49:05.551Z,1017.5
2019-01-20T10:50:03.547Z,1017.5
2019-01-20T10:51:03.727Z,1017.4
2019-01-20T10:52:03.424Z,1017.4
2019-01-20T10:53:03.749Z,1017.3
2019-01-20T10:54:03.741Z,1017.3
2019-01-20T10:55:03.513Z,1017.5
2019-01-20T10:56:02.091Z,1017.4
2019-01-20T10:57:03.018Z,1017.4
2019-01-20T10:58:03.022Z,1017.3
2019-01-20T10:59:03.167Z,1017.3
2019-01-20T11:00:03.928Z,1017.4
2019-01-20T11:01:03.180Z,1017.5
2019-01-20T11:02:03.301Z,1017.5
2019-01-20T11:03:03.512Z,1017.5
2019-01-20T11:04:03.281Z,1017.5
2019-01-20T11:05:03.920Z,1017.5
2019-01-20T11:06:03.070Z,1017.5
2019-01-20T11:07:03.897Z,1017.5
2019-01-20T11:08:03.448Z,1017.5
2019-01-20T11:09:04.151Z,1017.6
2019-01-20T11:10:03.580Z,1017.6
2019-01-20T11:11:03.136Z,1017.5
2019-01-20T11:12:03.908Z,1017.5
2019-01-20T11:13:03.541Z,1017.5
2019-01-20T11:14:02.038Z,1017.6
2019-01-20T11:15:03.418Z,1017.5
2019-01-20T11:16:03.051Z,1017.5
2019-01-20T11:17:03.759Z,1017.5
2019-01-20T11:18:02.985Z,1017.6
2019-01-20T11:19:03.081Z,1017.4
2019-01-20T11:20:03.722Z,1017.5
2019-01-20T11:21:03.611Z,1017.5
2019-01-20T11:22:03.366Z,1017.4
2019-01-20T11:23:01.966Z,1017.4
2019-01-20T11:24:03.708Z,1017.4
2019-01-20T11:25:03.288Z,1017.4
2019-01-20T11:26:03.780Z,1017.3
2019-01-20T11:27:03.224Z,1017.4
2019-01-20T11:28:03.620Z,1017.4
2019-01-20T11:29:03.495Z,1017.5
2019-01-20T11:30:03.571Z,1017.4
2019-01-20T11:31:03.868Z,1017.4
2019-01-20T11:32:03.082Z,1017.4
2019-01-20T11:33:02.972Z,1017.4
2019-01-20T11:34:03.324Z,1017.3
2019-01-20T11:35:03.686Z,1017.3
2019-01-20T11:36:03.778Z,1017.3
2019-01-20T11:37:03.523Z,1017.4
2019-01-20T11:38:03.458Z,1017.4
2019-01-20T11:39:03.120Z,1017.4
2019-01-20T11:40:03.774Z,1017.3
2019-01-20T11:41:03.853Z,1017.3
2019-01-20T11:42:02.144Z,1017.3
2019-01-20T11:43:03.015Z,1017.3
2019-01-20T11:44:03.092Z,1017.4
2019-01-20T11:45:03.318Z,1017.2
2019-01-20T11:46:03.388Z,1017.2
2019-01-20T11:47:03.281Z,1017.2
2019-01-20T11:48:03.348Z,1017.2
2019-01-20T11:49:03.256Z,1017.3
2019-01-20T11:50:03.569Z,1017.2
2019-01-20T11:51:03.609Z,1017.2
2019-01-20T11:52:03.352Z,1017.4
2019-01-20T11:53:03.341Z,1017.3
2019-01-20T11:54:03.807Z,1017.3
2019-01-20T11:55:03.148Z,1017.3
2019-01-20T11:56:05.249Z,1017.3
2019-01-20T11:57:03.260Z,1017.2
2019-01-20T11:58:04.409Z,1017.2
2019-01-20T11:59:03.679Z,1017.3
2019-01-20T12:00:02.877Z,1017.3
2019-01-20T12:01:03.168Z,1017.3
2019-01-20T12:02:03.797Z,1017.3
2019-01-20T12:03:03.918Z,1017.3
2019-01-20T12:04:03.808Z,1017.3
2019-01-20T12:05:03.353Z,1017.1
2019-01-20T12:06:03.128Z,1017.2
2019-01-20T12:07:03.031Z,1017.2
2019-01-20T12:08:03.482Z,1017.2
2019-01-20T12:09:03.396Z,1017.2
2019-01-20T12:10:02.616Z,1017.1
2019-01-20T12:11:04.009Z,1017.2
2019-01-20T12:12:03.459Z,1017.2
2019-01-20T12:13:02.786Z,1017.1
2019-01-20T12:14:02.390Z,1017.1
2019-01-20T12:15:03.429Z,1017.2
2019-01-20T12:16:03.620Z,1017.2
2019-01-20T12:17:03.065Z,1017.2
2019-01-20T12:18:02.983Z,1017.2
2019-01-20T12:19:03.800Z,1017.1
2019-01-20T12:20:07.268Z,1017.2
2019-01-20T12:21:03.912Z,1017.1
2019-01-20T12:22:03.540Z,1017.1
2019-01-20T12:23:03.537Z,1017.1
2019-01-20T12:24:03.026Z,1017.2
2019-01-20T12:25:03.367Z,1017.2
2019-01-20T12:26:03.058Z,1017.2
2019-01-20T12:27:03.306Z,1017.1
2019-01-20T12:28:03.235Z,1017.1
2019-01-20T12:29:03.712Z,1017.1
2019-01-20T12:30:03.548Z,1017
2019-01-20T12:31:02.989Z,1017.2
2019-01-20T12:32:03.780Z,1017.2